tititudorancea.com
Station Historical Data
Daily Summary for March 29, 2018 Units:  Metric    English   Both
« Previous Day
Next Day »
Daily Weekly Monthly Yearly Custom
  High: Low: Average:
Temperature: -17.8 °C 11.4 °C 16.2 °C
Dew Point: -17.8 °C 8.4 °C 10.5 °C
Humidity: Humidity % 40 % 73 %
Wind Speed: 0 km/h 0 km/h 6.8 km/h
Wind Gust: 0 km/h - -
Wind:- - WSW
Pressure: 0 hPa 1012.8 hPa -
Precipitation: 0 mm    
Historical Graphs
 
 
Ararat weather Find more about Weather in Ararat, AU


 



 


Tabular Data for March 29, 2018
Time Temperature Dew Point Pressure Wind Wind Speed Wind Gust Humidity Rainfall Rate (Hourly)
-17.8 °C -17.8 °C 0 hPa Calm     Humidity % 0 mm
00:01 14.4 °C 13.2 °C 1015.1 hPa North 12.9 km/h 18.5 km/h 92 % 0 mm
00:06 14.3 °C 13.1 °C 1015.1 hPa South 15 km/h 20.4 km/h 92 % 0 mm
00:11 14.3 °C 13.2 °C 1015.1 hPa North 7.7 km/h 13 km/h 93 % 0 mm
00:16 14.3 °C 13.2 °C 1015.1 hPa North 9.2 km/h 18.5 km/h 93 % 0 mm
00:21 14.3 °C 13.2 °C 1015.5 hPa South 8.2 km/h 13 km/h 93 % 0 mm
00:26 14.2 °C 13.1 °C 1015.5 hPa SSW 9.8 km/h 9.8 km/h 93 % 0 mm
00:31 14.1 °C 13 °C 1015.5 hPa North 13.4 km/h 18.5 km/h 93 % 0 mm
00:36 14 °C 12.9 °C 1015.5 hPa South 10.5 km/h 18.5 km/h 93 % 0 mm
00:41 14 °C 12.9 °C 1015.1 hPa South 8.7 km/h 11.1 km/h 93 % 0 mm
00:46 13.9 °C 12.8 °C 1015.1 hPa North 7.6 km/h 14.8 km/h 93 % 0 mm
00:51 13.9 °C 12.8 °C 1015.1 hPa South 9.2 km/h 14.8 km/h 93 % 0 mm
00:56 13.9 °C 12.8 °C 1015.1 hPa South 8.7 km/h 14.5 km/h 93 % 0 mm
01:01 13.9 °C 12.8 °C 1015.1 hPa South 5.8 km/h 9.7 km/h 93 % 0 mm
01:06 13.8 °C 12.9 °C 1015.1 hPa North 10 km/h 13 km/h 94 % 0 mm
01:11 13.8 °C 12.8 °C 1015.1 hPa North 7.4 km/h 11.1 km/h 94 % 0 mm
01:16 13.8 °C 12.8 °C 1014.8 hPa North 8.2 km/h 11.1 km/h 94 % 0 mm
01:21 13.7 °C 12.8 °C 1014.8 hPa North 6.6 km/h 9.7 km/h 94 % 0 mm
01:22 13.8 °C 12.8 °C 1014.8 hPa South 5.6 km/h 11.1 km/h 94 % 0 mm
01:27 13.8 °C 12.8 °C 1014.8 hPa North 5.1 km/h 7.4 km/h 94 % 0 mm
01:33 13.8 °C 12.8 °C 1014.8 hPa North 6.6 km/h 9.3 km/h 94 % 0 mm
01:38 13.7 °C 12.8 °C 1014.8 hPa South 6.3 km/h 9.3 km/h 94 % 0 mm
01:43 13.7 °C 12.8 °C 1014.8 hPa North 6.1 km/h 7.4 km/h 94 % 0 mm
01:48 13.7 °C 12.8 °C 1014.4 hPa North 3.1 km/h 8 km/h 94 % 0 mm
01:53 13.7 °C 12.8 °C 1014.4 hPa North 2.7 km/h 5.6 km/h 94 % 0 mm
01:58 13.7 °C 12.8 °C 1014.8 hPa South 6.8 km/h 9.3 km/h 94 % 0 mm
02:03 13.8 °C 12.8 °C 1014.8 hPa North 5.6 km/h 7.4 km/h 94 % 0 mm
02:08 13.8 °C 12.8 °C 1014.8 hPa South 8.2 km/h 11.1 km/h 94 % 0 mm
02:13 13.8 °C 12.8 °C 1014.8 hPa South 5.1 km/h 8 km/h 94 % 0 mm
02:18 13.8 °C 12.8 °C 1014.8 hPa South 3.1 km/h 7.4 km/h 94 % 0 mm
02:23 13.8 °C 12.9 °C 1014.8 hPa North 6.4 km/h 11.1 km/h 94 % 0 mm
02:28 13.8 °C 12.8 °C 1014.8 hPa South 7.1 km/h 11.1 km/h 94 % 0 mm
02:33 13.8 °C 12.8 °C 1014.4 hPa North 6.3 km/h 9.3 km/h 94 % 0 mm
02:38 13.8 °C 12.8 °C 1014.4 hPa North 1.4 km/h 5.6 km/h 94 % 0 mm
02:43 13.8 °C 12.9 °C 1014.4 hPa South 9.5 km/h 13 km/h 94 % 0 mm
02:48 13.7 °C 12.7 °C 1014.4 hPa South 5.1 km/h 9.3 km/h 94 % 0 mm
02:53 13.7 °C 12.7 °C 1014.4 hPa SSE 6.9 km/h 11.1 km/h 94 % 0 mm
02:58 13.8 °C 12.8 °C 1014.4 hPa North 6 km/h 9.7 km/h 94 % 0 mm
03:03 13.8 °C 12.8 °C 1014.4 hPa South 5.8 km/h 11.1 km/h 94 % 0 mm
03:08 13.8 °C 12.8 °C 1014.4 hPa North 4.5 km/h 9.3 km/h 94 % 0 mm
03:13 13.7 °C 12.8 °C 1014.4 hPa South 7.1 km/h 11.1 km/h 94 % 0 mm
03:18 13.7 °C 12.8 °C 1014.4 hPa North 7.7 km/h 11.1 km/h 94 % 0 mm
03:23 13.7 °C 12.6 °C 1014.4 hPa South 7.1 km/h 13 km/h 93 % 0 mm
03:28 13.7 °C 12.6 °C 1014.4 hPa South 8 km/h 11.3 km/h 93 % 0 mm
03:33 13.8 °C 12.7 °C 1014.4 hPa North 8 km/h 12.9 km/h 93 % 0 mm
03:38 13.8 °C 12.7 °C 1014.4 hPa North 5.6 km/h 7.4 km/h 93 % 0 mm
03:43 13.8 °C 12.7 °C 1014.4 hPa South 7.2 km/h 11.1 km/h 93 % 0 mm
03:48 13.8 °C 12.5 °C 1014.4 hPa South 10.6 km/h 14.5 km/h 92 % 0 mm
03:53 13.8 °C 12.5 °C 1014.4 hPa North 11.4 km/h 14.8 km/h 92 % 0 mm
03:58 13.8 °C 12.5 °C 1014.4 hPa South 10.3 km/h 16.7 km/h 92 % 0 mm
04:03 13.8 °C 12.5 °C 1014.4 hPa South 11.9 km/h 18.5 km/h 92 % 0 mm
04:08 13.7 °C 12.4 °C 1014.4 hPa North 11.4 km/h 18.5 km/h 92 % 0 mm
04:13 13.6 °C 12.5 °C 1014.4 hPa North 6.1 km/h 8 km/h 93 % 0 mm
04:18 13.6 °C 12.5 °C 1014.4 hPa South 8.2 km/h 9.3 km/h 93 % 0 mm
04:23 13.6 °C 12.4 °C 1014.4 hPa South 5.1 km/h 9.7 km/h 93 % 0 mm
04:28 13.5 °C 12.4 °C 1014.4 hPa South 5.8 km/h 9.3 km/h 93 % 0 mm
04:33 13.6 °C 12.4 °C 1014.4 hPa North 6.4 km/h 6.4 km/h 93 % 0 mm
04:38 13.6 °C 12.5 °C 1014.4 hPa North 5.8 km/h 7.4 km/h 93 % 0 mm
04:43 13.6 °C 12.5 °C 1014.4 hPa North 6.1 km/h 11.1 km/h 93 % 0 mm
04:48 13.6 °C 12.4 °C 1014.4 hPa South 11.3 km/h 18.5 km/h 93 % 0 mm
04:53 13.3 °C 12.2 °C 1014.4 hPa North 11.4 km/h 16.7 km/h 93 % 0 mm
04:58 13.2 °C 12.1 °C 1014.4 hPa SSW 11.3 km/h 16.7 km/h 93 % 0 mm
05:03 13.1 °C 12 °C 1014.4 hPa SSW 6.4 km/h 11.1 km/h 93 % 0 mm
05:08 13.1 °C 11.9 °C 1014.4 hPa North 8 km/h 14.8 km/h 93 % 0 mm
05:13 13 °C 12.1 °C 1014.4 hPa North 7.1 km/h 14.8 km/h 94 % 0 mm
05:18 12.9 °C 12 °C 1014.4 hPa North 11.4 km/h 14.8 km/h 94 % 0 mm
05:23 12.9 °C 12 °C 1014.4 hPa North 9.5 km/h 14.5 km/h 94 % 0 mm
05:28 12.8 °C 11.9 °C 1014.4 hPa North 10.1 km/h 14.8 km/h 94 % 0 mm
05:33 12.8 °C 11.9 °C 1014.4 hPa North 10 km/h 14.8 km/h 94 % 0 mm
05:38 12.8 °C 11.8 °C 1014.4 hPa North 4.3 km/h 11.1 km/h 94 % 0 mm
05:43 12.8 °C 11.8 °C 1014.4 hPa South 2.9 km/h 5.6 km/h 94 % 0 mm
05:48 12.7 °C 11.8 °C 1014.4 hPa South 7.7 km/h 11.1 km/h 94 % 0 mm
05:53 12.7 °C 11.8 °C 1014.4 hPa South 3.9 km/h 13 km/h 94 % 0 mm
05:58 12.7 °C 11.8 °C 1014.4 hPa North 4.8 km/h 8 km/h 94 % 0 mm
06:03 12.7 °C 11.8 °C 1014.4 hPa South 3.7 km/h 6.4 km/h 94 % 0 mm
06:08 12.7 °C 11.7 °C 1014.4 hPa North 0.6 km/h 3.7 km/h 94 % 0 mm
06:13 12.7 °C 11.7 °C 1014.4 hPa South 2.7 km/h 5.6 km/h 94 % 0 mm
06:18 12.7 °C 11.7 °C 1014.4 hPa South 3.9 km/h 8 km/h 94 % 0 mm
06:23 12.6 °C 11.7 °C 1014.8 hPa South 5 km/h 7.4 km/h 94 % 0 mm
06:28 12.6 °C 11.6 °C 1014.8 hPa North 3.4 km/h 5.6 km/h 94 % 0 mm
06:33 12.5 °C 11.6 °C 1014.8 hPa North 2.7 km/h 5.6 km/h 94 % 0 mm
06:38 12.4 °C 11.5 °C 1014.8 hPa South 3.9 km/h 7.4 km/h 94 % 0 mm
06:43 12.4 °C 11.5 °C 1014.8 hPa North 1.3 km/h 5.6 km/h 94 % 0 mm
06:48 12.4 °C 11.4 °C 1014.8 hPa South 4.2 km/h 6.4 km/h 94 % 0 mm
06:53 12.4 °C 11.4 °C 1014.8 hPa South 4 km/h 7.4 km/h 94 % 0 mm
06:58 12.3 °C 11.3 °C 1014.8 hPa South 6.4 km/h 9.3 km/h 94 % 0 mm
07:03 12.2 °C 11.3 °C 1014.8 hPa South 5.6 km/h 7.4 km/h 94 % 0 mm
07:08 12.1 °C 11.2 °C 1014.8 hPa North 6.1 km/h 6.4 km/h 94 % 0 mm
07:13 12 °C 11.1 °C 1014.8 hPa North 4.3 km/h 7.4 km/h 94 % 0 mm
07:18 11.8 °C 10.9 °C 1014.8 hPa South 6 km/h 7.4 km/h 94 % 0 mm
07:23 11.8 °C 10.8 °C 1014.8 hPa North 6.1 km/h 6.1 km/h 94 % 0 mm
07:28 11.7 °C 10.8 °C 1015.1 hPa North 5.8 km/h 9.3 km/h 94 % 0 mm
07:33 11.7 °C 10.7 °C 1015.1 hPa North 5.8 km/h 7.4 km/h 94 % 0 mm
07:38 11.7 °C 10.7 °C 1015.1 hPa South 2.7 km/h 6.4 km/h 94 % 0 mm
07:43 11.6 °C 10.7 °C 1015.1 hPa North 3.5 km/h 5.6 km/h 94 % 0 mm
07:48 11.6 °C 10.6 °C 1015.1 hPa South 1.1 km/h 3.7 km/h 94 % 0 mm
07:53 11.5 °C 10.6 °C 1015.1 hPa North 2.3 km/h 5.6 km/h 94 % 0 mm
07:58 11.4 °C 10.5 °C 1015.1 hPa South 0.3 km/h 1.9 km/h 94 % 0 mm
08:03 11.4 °C 10.5 °C 1015.5 hPa South 0.3 km/h 5.6 km/h 94 % 0 mm
08:08 11.4 °C 10.4 °C 1015.5 hPa Calm   1.9 km/h 94 % 0 mm
08:13 11.4 °C 10.5 °C 1015.5 hPa North 3.2 km/h 5.6 km/h 94 % 0 mm
08:18 11.5 °C 10.6 °C 1015.5 hPa South 1.8 km/h 5.6 km/h 94 % 0 mm
08:23 11.6 °C 10.7 °C 1015.5 hPa North 3.4 km/h 3.7 km/h 94 % 0 mm
08:28 11.8 °C 11 °C 1015.5 hPa North 4.7 km/h 5.6 km/h 95 % 0 mm
08:33 11.9 °C 10.9 °C 1015.8 hPa South 5.6 km/h 5.6 km/h 94 % 0 mm
08:38 12.1 °C 11.1 °C 1015.8 hPa North 4.7 km/h 5.6 km/h 94 % 0 mm
08:43 12.2 °C 11.2 °C 1015.8 hPa South 5.6 km/h 8 km/h 94 % 0 mm
08:48 12.4 °C 11.4 °C 1015.8 hPa South 6.8 km/h 9.3 km/h 94 % 0 mm
08:53 12.5 °C 11.4 °C 1015.8 hPa South 11.1 km/h 16.7 km/h 93 % 0 mm
08:58 12.7 °C 11.4 °C 1015.8 hPa South 10.3 km/h 14.8 km/h 92 % 0 mm
09:03 13.1 °C 11.4 °C 1015.8 hPa South 10 km/h 14.8 km/h 90 % 0 mm
09:08 13.3 °C 11.3 °C 1015.8 hPa South 6.6 km/h 9.3 km/h 88 % 0 mm
09:13 13.4 °C 10.9 °C 1015.8 hPa SSW 10.9 km/h 14.8 km/h 85 % 0 mm
09:18 13.4 °C 10.6 °C 1016.1 hPa SSW 13.7 km/h 13.7 km/h 83 % 0 mm
09:23 13.4 °C 10.6 °C 1016.1 hPa SSW 10 km/h 13 km/h 83 % 0 mm
09:28 13.5 °C 10.3 °C 1016.1 hPa SSW 7.6 km/h 13 km/h 81 % 0 mm
09:33 13.6 °C 10.3 °C 1016.1 hPa SSW 7.9 km/h 11.1 km/h 81 % 0 mm
09:34 13.6 °C 10.2 °C 1016.1 hPa South 7.2 km/h 13 km/h 80 % 0 mm
09:39 13.6 °C 10.1 °C 1016.1 hPa SSW 6.4 km/h 13 km/h 79 % 0 mm
09:44 13.7 °C 10.2 °C 1016.1 hPa SSW 7.1 km/h 9.3 km/h 79 % 0 mm
09:49 13.8 °C 10 °C 1016.1 hPa SSW 10.9 km/h 16.7 km/h 78 % 0 mm
09:54 13.7 °C 9.8 °C 1016.1 hPa SSW 12.1 km/h 14.8 km/h 77 % 0 mm
09:59 13.8 °C 9.8 °C 1016.1 hPa SSW 8.5 km/h 13 km/h 77 % 0 mm
10:04 14 °C 10.1 °C 1016.1 hPa SSW 3.1 km/h 7.4 km/h 77 % 0 mm
10:09 14.4 °C 10.4 °C 1016.1 hPa SSE 8.9 km/h 16.7 km/h 77 % 0 mm
10:14 14.7 °C 10.1 °C 1016.1 hPa SSW 9.7 km/h 16.7 km/h 74 % 0 mm
10:19 14.4 °C 9.9 °C 1016.1 hPa SSW 7.6 km/h 11.1 km/h 74 % 0 mm
10:24 14.4 °C 9.9 °C 1016.1 hPa SSW 7.2 km/h 7.2 km/h 74 % 0 mm
10:29 14.8 °C 10.2 °C 1016.1 hPa SSW 6.4 km/h 7.4 km/h 74 % 0 mm
10:34 14.9 °C 9.7 °C 1016.5 hPa SSW 7.7 km/h 14.8 km/h 71 % 0 mm
10:39 14.7 °C 9.7 °C 1016.1 hPa North 8.4 km/h 11.3 km/h 72 % 0 mm
10:44 14.7 °C 9.7 °C 1016.5 hPa SSW 10.6 km/h 14.8 km/h 72 % 0 mm
10:49 14.9 °C 10.2 °C 1016.1 hPa South 7.6 km/h 9.3 km/h 73 % 0 mm
10:54 15.2 °C 9.8 °C 1016.1 hPa South 13.4 km/h 13.4 km/h 70 % 0 mm
10:59 15.2 °C 9.7 °C 1016.1 hPa South 4.8 km/h 7.4 km/h 70 % 0 mm
11:04 15.5 °C 10.1 °C 1016.1 hPa South 8.2 km/h 14.8 km/h 70 % 0 mm
11:09 15.5 °C 9.6 °C 1016.1 hPa South 5.5 km/h 12.9 km/h 68 % 0 mm
11:15 15.7 °C 10.1 °C 1016.1 hPa South 9.2 km/h 11.1 km/h 69 % 0 mm
11:19 15.8 °C 9.7 °C 1016.1 hPa SSW 6.1 km/h 11.1 km/h 67 % 0 mm
11:24 15.8 °C 9.4 °C 1016.1 hPa SSW 8 km/h 11.3 km/h 66 % 0 mm
11:29 16 °C 9.7 °C 1015.8 hPa SSW 8.4 km/h 8.4 km/h 66 % 0 mm
11:34 16.4 °C 10 °C 1015.8 hPa SSE 9.5 km/h 14.8 km/h 66 % 0 mm
11:39 16.6 °C 9.5 °C 1015.8 hPa SSW 13.7 km/h 16.7 km/h 63 % 0 mm
11:44 16.4 °C 9.3 °C 1015.8 hPa SSW 8.2 km/h 9.3 km/h 63 % 0 mm
11:49 16.7 °C 9.9 °C 1015.8 hPa SSW 9.5 km/h 19.3 km/h 64 % 0 mm
11:54 16.8 °C 9.7 °C 1015.8 hPa SSW 6 km/h 9.3 km/h 63 % 0 mm
12:00 16.8 °C 9.4 °C 1015.8 hPa SSW 4.7 km/h 18.5 km/h 62 % 0 mm
12:05 17 °C 9.7 °C 1015.8 hPa SSW 9.3 km/h 14.8 km/h 62 % 0 mm
12:10 17.3 °C 9.7 °C 1015.8 hPa SSW 11.4 km/h 16.7 km/h 61 % 0 mm
12:15 17.3 °C 9.7 °C 1015.8 hPa SSW 2.1 km/h 5.6 km/h 61 % 0 mm
12:20 17.5 °C 9.4 °C 1015.5 hPa SSW 10.9 km/h 14.8 km/h 59 % 0 mm
12:25 17.6 °C 9.7 °C 1015.5 hPa SSW 6 km/h 8 km/h 60 % 0 mm
12:30 17.9 °C 9.2 °C 1015.5 hPa SW 6.1 km/h 16.7 km/h 57 % 0 mm
12:35 17.8 °C 8.9 °C 1015.5 hPa SSW 6.9 km/h 11.1 km/h 56 % 0 mm
12:40 18 °C 9.1 °C 1015.5 hPa SSW 4 km/h 11.3 km/h 56 % 0 mm
12:45 18.3 °C 9.1 °C 1015.5 hPa SSW 12.1 km/h 18.5 km/h 55 % 0 mm
12:50 18.2 °C 9 °C 1015.5 hPa SW 6.4 km/h 7.4 km/h 55 % 0 mm
12:55 18.3 °C 9.1 °C 1015.1 hPa North 2.3 km/h 7.4 km/h 55 % 0 mm
13:00 18.6 °C 9.4 °C 1015.1 hPa SSW 8 km/h 11.3 km/h 55 % 0 mm
13:05 18.9 °C 9.4 °C 1015.1 hPa South 4.3 km/h 9.3 km/h 54 % 0 mm
13:10 19.3 °C 9.2 °C 1015.1 hPa North 9.8 km/h 13 km/h 52 % 0 mm
13:15 19.2 °C 9.1 °C 1015.1 hPa SW 5.6 km/h 9.7 km/h 52 % 0 mm
13:20 19.2 °C 9.4 °C 1015.1 hPa SW 7.6 km/h 11.1 km/h 53 % 0 mm
13:25 19.4 °C 9.3 °C 1014.8 hPa SW 3.5 km/h 5.6 km/h 52 % 0 mm
13:30 19.8 °C 9.4 °C 1014.8 hPa North 9.8 km/h 14.8 km/h 51 % 0 mm
13:35 19.8 °C 8.4 °C 1014.8 hPa North 8.2 km/h 11.1 km/h 48 % 0 mm
13:40 19.6 °C 8.9 °C 1014.8 hPa North 5.5 km/h 5.6 km/h 50 % 0 mm
13:45 19.7 °C 9 °C 1014.8 hPa SW 8.9 km/h 13 km/h 50 % 0 mm
13:50 19.9 °C 8.8 °C 1014.8 hPa SW 7.4 km/h 13 km/h 49 % 0 mm
13:55 19.9 °C 8.8 °C 1014.4 hPa SW 8.4 km/h 11.1 km/h 49 % 0 mm
14:00 20.2 °C 8.8 °C 1014.4 hPa SW 4.7 km/h 9.3 km/h 48 % 0 mm
14:05 20.3 °C 9.3 °C 1014.4 hPa SW 7.1 km/h 11.1 km/h 49 % 0 mm
14:10 20.4 °C 9 °C 1014.1 hPa SSW 6.3 km/h 9.3 km/h 48 % 0 mm
14:15 20.4 °C 9.1 °C 1014.1 hPa SW 8.4 km/h 16.7 km/h 48 % 0 mm
14:20 20.6 °C 9.5 °C 1014.1 hPa SSW 7.9 km/h 13 km/h 49 % 0 mm
14:25 20.7 °C 9 °C 1014.1 hPa South 2.7 km/h 9.3 km/h 47 % 0 mm
14:30 20.8 °C 9.4 °C 1014.1 hPa South 5.6 km/h 7.4 km/h 48 % 0 mm
14:35 21 °C 9.3 °C 1014.1 hPa South 8.2 km/h 11.1 km/h 47 % 0 mm
14:40 21.2 °C 9.4 °C 1013.8 hPa SW 8.2 km/h 13 km/h 47 % 0 mm
14:45 21.1 °C 8.7 °C 1013.8 hPa SW 6 km/h 7.4 km/h 45 % 0 mm
14:50 21.1 °C 9.1 °C 1013.8 hPa SW 2.9 km/h 5.6 km/h 46 % 0 mm
14:55 21.6 °C 9.2 °C 1013.8 hPa SW 4.3 km/h 7.4 km/h 45 % 0 mm
15:00 21.6 °C 9.5 °C 1013.8 hPa SSW 5.3 km/h 11.1 km/h 46 % 0 mm
15:05 21.7 °C 8.9 °C 1013.4 hPa SW 8.9 km/h 13 km/h 44 % 0 mm
15:10 21.3 °C 8.9 °C 1013.4 hPa SSW 4.2 km/h 5.6 km/h 45 % 0 mm
15:15 21.6 °C 9.2 °C 1013.4 hPa SSW 5.6 km/h 9.3 km/h 45 % 0 mm
15:20 21.7 °C 8.9 °C 1013.4 hPa SSW 6.3 km/h 9.3 km/h 44 % 0 mm
15:25 21.8 °C 9 °C 1013.4 hPa SSW 8.5 km/h 13 km/h 44 % 0 mm
15:30 21.8 °C 9 °C 1013.4 hPa SSW 8.5 km/h 13 km/h 44 % 0 mm
15:35 21.7 °C 8.6 °C 1013.4 hPa SSW 6.3 km/h 11.3 km/h 43 % 0 mm
15:40 21.7 °C 8.9 °C 1013.4 hPa SSW 1 km/h 3.7 km/h 44 % 0 mm
15:45 22.2 °C 8.7 °C 1013.4 hPa SSW 4.7 km/h 5.6 km/h 42 % 0 mm
15:50 22.6 °C 9.4 °C 1013.4 hPa SSW 8 km/h 13 km/h 43 % 0 mm
15:51 22.6 °C 9 °C 1013.4 hPa SSW 10.9 km/h 17.7 km/h 42 % 0 mm
15:56 22.2 °C 9.1 °C 1013.4 hPa SSW 9.7 km/h 13 km/h 43 % 0 mm
16:01 22.2 °C 9 °C 1013.1 hPa SSW 6 km/h 9.7 km/h 43 % 0 mm
16:06 22.2 °C 9.1 °C 1013.4 hPa North 6.6 km/h 11.1 km/h 43 % 0 mm
16:11 22.6 °C 9.3 °C 1013.1 hPa SSW 4.2 km/h 8 km/h 43 % 0 mm
16:16 22.5 °C 8.9 °C 1013.1 hPa SSW 4.3 km/h 6.4 km/h 42 % 0 mm
16:21 22.6 °C 9.1 °C 1013.1 hPa South 12.2 km/h 14.8 km/h 42 % 0 mm
16:26 22.6 °C 9.1 °C 1013.1 hPa SSE 3.2 km/h 6.4 km/h 42 % 0 mm
16:31 22.8 °C 9.2 °C 1012.8 hPa SSE 5.8 km/h 9.3 km/h 42 % 0 mm
16:36 23 °C 9.1 °C 1012.8 hPa WSW 9.3 km/h 17.7 km/h 41 % 0 mm
16:41 23 °C 8.7 °C 1012.8 hPa North 4.3 km/h 7.4 km/h 40 % 0 mm
16:46 23.1 °C 9.1 °C 1012.8 hPa West 4.2 km/h 6.4 km/h 41 % 0 mm
16:51 22.9 °C 8.9 °C 1012.8 hPa SW 2.4 km/h 5.6 km/h 41 % 0 mm
16:56 22.9 °C 8.9 °C 1012.8 hPa SW 3.1 km/h 5.6 km/h 41 % 0 mm
17:01 23.1 °C 9.1 °C 1012.8 hPa SW 3.9 km/h 5.6 km/h 41 % 0 mm
17:06 23.1 °C 8.7 °C 1012.8 hPa SW 9.7 km/h 13 km/h 40 % 0 mm
17:11 23 °C 9.1 °C 1012.8 hPa SW 2.9 km/h 8 km/h 41 % 0 mm
17:16 23.1 °C 9.1 °C 1012.8 hPa SW 3.4 km/h 5.6 km/h 41 % 0 mm
17:21 23.3 °C 9.3 °C 1012.8 hPa SW 0.8 km/h 3.7 km/h 41 % 0 mm
17:26 23.4 °C 9 °C 1012.8 hPa SW 1.9 km/h 5.6 km/h 40 % 0 mm
17:31 23.4 °C 9.1 °C 1013.1 hPa SW 9.3 km/h 11.1 km/h 40 % 0 mm
17:36 23 °C 9.1 °C 1013.1 hPa SW 4.2 km/h 5.6 km/h 41 % 0 mm
17:41 23 °C 9.1 °C 1012.8 hPa SW 4.3 km/h 9.7 km/h 41 % 0 mm
17:46 22.9 °C 8.9 °C 1013.1 hPa SW 8.7 km/h 11.1 km/h 41 % 0 mm
17:51 22.7 °C 8.7 °C 1012.8 hPa SW 1.6 km/h 5.6 km/h 41 % 0 mm
17:56 22.6 °C 9.1 °C 1012.8 hPa SSW 9 km/h 14.8 km/h 42 % 0 mm
18:01 22.6 °C 9.1 °C 1012.8 hPa SSW 8.2 km/h 11.1 km/h 42 % 0 mm
18:06 22.6 °C 9 °C 1013.1 hPa SSW 5 km/h 7.4 km/h 42 % 0 mm
18:11 22.6 °C 9 °C 1013.1 hPa SSW 7.1 km/h 9.3 km/h 42 % 0 mm
18:16 22.5 °C 8.9 °C 1013.1 hPa South 11.3 km/h 16.7 km/h 42 % 0 mm
18:21 22.3 °C 9.1 °C 1013.1 hPa South 6.8 km/h 9.3 km/h 43 % 0 mm
18:26 22.2 °C 9.1 °C 1013.1 hPa South 5.1 km/h 7.4 km/h 43 % 0 mm
18:31 22.1 °C 8.9 °C 1013.1 hPa South 6.3 km/h 11.1 km/h 43 % 0 mm
18:36 22 °C 8.8 °C 1013.1 hPa South 9.5 km/h 13 km/h 43 % 0 mm
18:41 21.8 °C 9.1 °C 1013.4 hPa SSW 13 km/h 18.5 km/h 44 % 0 mm
18:46 21.6 °C 8.8 °C 1013.4 hPa SSW 10.8 km/h 16.7 km/h 44 % 0 mm
18:51 21.4 °C 9 °C 1013.4 hPa SSW 6 km/h 7.4 km/h 45 % 0 mm
18:56 21.3 °C 8.8 °C 1013.4 hPa SSW 9.5 km/h 18.5 km/h 45 % 0 mm
19:01 21.2 °C 9.1 °C 1013.4 hPa SSW 4.5 km/h 5.6 km/h 46 % 0 mm
19:06 20.9 °C 8.9 °C 1013.4 hPa SSW 7.1 km/h 13 km/h 46 % 0 mm
19:11 20.7 °C 9 °C 1013.4 hPa SSW 7.7 km/h 9.3 km/h 47 % 0 mm
Ararat Weather
Compliments of Weather Underground - 2 mb
Click here to send mail.


ABOUT

Live weather data from Ararat, Victoria, Australia, 3377
Data uploaded from Cumulus every 5 minutes to Weather Underground.
This site then downloads the raw data for formatting and display.
Metric and imperial data can be displayed. Graphs and historical data available.
Includes Sun and Moon times and rain image live from BOM.

Check out Ararat Weather on Facebook, Twitter and Google +

Help support ongoing costs by checking out the ads





Follow @AraratWeather